ADDS METAR Data INFO
IDs: Format: Raw Decoded Include TAF

Data at: 0248 UTC 21 Jan 2018

KHOE 210235Z AUTO 00000KT 10SM CLR 06/02 A3028 RMK AO2
KHOE 210215Z AUTO 00000KT 10SM CLR 07/03 A3028 RMK AO2
KHOE 210155Z AUTO 00000KT 10SM CLR 07/03 A3028 RMK AO2
KHOE 210135Z AUTO 00000KT 10SM CLR 07/03 A3029 RMK AO2
KHOE 210115Z AUTO 00000KT 10SM CLR 07/03 A3029 RMK AO2
KHOE 210055Z AUTO 00000KT 10SM CLR 07/02 A3028 RMK AO2
KHOE 210035Z AUTO 00000KT 10SM CLR 07/03 A3028 RMK AO2
KHOE 210015Z AUTO 00000KT 10SM CLR 07/03 A3027 RMK AO2
KHOE 202355Z AUTO 00000KT 10SM CLR 08/03 A3026 RMK AO2
KHOE 202335Z AUTO 00000KT 10SM CLR 09/03 A3028 RMK AO2
KHOE 202315Z AUTO 00000KT 10SM CLR 11/01 A3027 RMK AO2
KHOE 202255Z AUTO 00000KT 10SM CLR 12/00 A3026 RMK AO2
KHOE 202235Z AUTO 28003KT 10SM CLR 13/M01 A3026 RMK AO2
KHOE 202215Z AUTO 31003KT 10SM CLR 15/M03 A3025 RMK AO2
KHOE 202155Z AUTO 28003KT 10SM CLR 15/M02 A3026 RMK AO2
KHOE 202135Z AUTO 00000KT 10SM CLR 15/M03 A3025 RMK AO2
KHOE 202115Z AUTO 29003KT 10SM CLR 15/M05 A3026 RMK AO2
KHOE 202055Z AUTO 25004KT 10SM CLR 16/M06 A3024 RMK AO2
KHOE 202035Z AUTO 00000KT 10SM CLR 16/M06 A3023 RMK AO2
KHOE 202015Z AUTO 27004KT 10SM CLR 16/M06 A3025 RMK AO2
KHOE 201955Z AUTO 00000KT 10SM CLR 16/M07 A3025 RMK AO2
KHOE 201935Z AUTO 26003KT 10SM CLR 16/M07 A3025 RMK AO2
KHOE 201915Z AUTO 27004KT 10SM CLR 15/M07 A3026 RMK AO2
KHOE 201855Z AUTO 26004KT 10SM CLR 16/M08 A3027 RMK AO2
KHOE 201835Z AUTO 30006KT 10SM CLR 16/M08 A3026 RMK AO2
KHOE 201815Z AUTO 30006KT 10SM CLR 15/M08 A3028 RMK AO2
KHOE 201755Z AUTO 36003KT 10SM CLR 15/M08 A3029 RMK AO2
KHOE 201735Z AUTO 30004KT 10SM CLR 15/M07 A3031 RMK AO2
KHOE 201715Z AUTO 30003KT 10SM CLR 15/M06 A3032 RMK AO2
KHOE 201655Z AUTO 00000KT 10SM CLR 14/M06 A3034 RMK AO2
KHOE 201635Z AUTO 02003KT 10SM CLR 13/M06 A3034 RMK AO2
KHOE 201615Z AUTO 32004KT 10SM CLR 13/M05 A3035 RMK AO2
KHOE 201555Z AUTO 34003KT 10SM CLR 12/M03 A3035 RMK AO2
KHOE 201535Z AUTO 00000KT 10SM CLR 11/M03 A3035 RMK AO2
KHOE 201515Z AUTO 00000KT 10SM CLR 10/M03 A3034 RMK AO2
KHOE 201455Z AUTO 00000KT 10SM CLR 08/M03 A3034 RMK AO2
KHOE 201435Z AUTO 00000KT 10SM CLR 06/M01 A3035 RMK AO2
KHOE 201415Z AUTO 00000KT 10SM CLR 05/M01 A3034 RMK AO2
KHOE 201355Z AUTO 00000KT 10SM CLR 03/00 A3033 RMK AO2
KHOE 201335Z AUTO 00000KT 10SM CLR 01/00 A3033 RMK AO2
KHOE 201315Z AUTO 00000KT 10SM CLR 00/M01 A3032 RMK AO2
KHOE 201255Z AUTO 00000KT 10SM CLR M01/M02 A3031 RMK AO2
KHOE 201235Z AUTO 00000KT 10SM CLR M01/M02 A3030 RMK AO2
KHOE 201215Z AUTO 00000KT 10SM CLR M02/M02 A3029 RMK AO2
KHOE 201155Z AUTO 00000KT 10SM CLR M01/M02 A3029 RMK AO2
KHOE 201135Z AUTO 00000KT 10SM CLR M01/M02 A3029 RMK AO2
KHOE 201115Z AUTO 00000KT 10SM CLR M01/M02 A3029 RMK AO2
KHOE 201055Z AUTO 00000KT 10SM CLR M01/M02 A3028 RMK AO2
KHOE 201035Z AUTO 00000KT 10SM CLR M01/M02 A3028 RMK AO2
KHOE 201015Z AUTO 00000KT 10SM CLR M01/M02 A3028 RMK AO2
KHOE 200955Z AUTO 00000KT 10SM CLR M01/M02 A3028 RMK AO2
KHOE 200935Z AUTO 00000KT 10SM CLR M01/M02 A3028 RMK AO2
KHOE 200915Z AUTO 00000KT 10SM CLR M01/M01 A3027 RMK AO2
KHOE 200855Z AUTO 00000KT 10SM CLR 00/M01 A3028 RMK AO2
KHOE 200835Z AUTO 00000KT 10SM CLR M01/M02 A3029 RMK AO2
KHOE 200815Z AUTO 00000KT 10SM CLR M01/M01 A3028 RMK AO2
KHOE 200755Z AUTO 00000KT 10SM CLR M01/M02 A3029 RMK AO2
KHOE 200735Z AUTO 00000KT 10SM CLR 00/M02 A3028 RMK AO2
KHOE 200715Z AUTO 00000KT 10SM CLR M01/M02 A3028 RMK AO2
KHOE 200655Z AUTO 00000KT 10SM CLR 00/M02 A3027 RMK AO2
KHOE 200635Z AUTO 00000KT 10SM CLR 00/M02 A3027 RMK AO2
KHOE 200615Z AUTO 00000KT 10SM CLR 00/M01 A3028 RMK AO2
KHOE 200555Z AUTO 00000KT 10SM CLR 00/M01 A3028 RMK AO2
KHOE 200535Z AUTO 00000KT 10SM CLR 00/M01 A3028 RMK AO2
KHOE 200515Z AUTO 00000KT 10SM CLR 00/M01 A3027 RMK AO2
KHOE 200455Z AUTO 00000KT 10SM CLR 00/M01 A3028 RMK AO2
KHOE 200440Z AUTO 00000KT 10SM CLR 00/M01 A3028 RMK AO2
KHOE 200415Z AUTO 00000KT 10SM CLR 00/M01 A3029 RMK AO2
KHOE 200355Z AUTO 00000KT 10SM CLR 00/M01 A3029 RMK AO2
KHOE 200335Z AUTO 00000KT 10SM CLR 00/00 A3029 RMK AO2
KHOE 200315Z AUTO 00000KT 10SM CLR 00/00 A3029 RMK AO2
KHOE 200255Z AUTO 00000KT 10SM CLR 00/00 A3029 RMK AO2
KHOE 200235Z AUTO 00000KT 10SM CLR 01/00 A3029 RMK AO2
KHOE 200215Z AUTO 00000KT 10SM CLR 01/00 A3029 RMK AO2
KHOE 200155Z AUTO 00000KT 10SM CLR 01/00 A3029 RMK AO2
KHOE 200135Z AUTO 00000KT 10SM CLR 02/00 A3028 RMK AO2
KHOE 200115Z AUTO 00000KT 10SM CLR 02/00 A3028 RMK AO2
KHOE 200055Z AUTO 00000KT 10SM CLR 02/00 A3027 RMK AO2
KHOE 200035Z AUTO 00000KT 10SM CLR 03/00 A3027 RMK AO2
KHOE 200015Z AUTO 00000KT 10SM CLR 03/00 A3027 RMK AO2
KHOE 192355Z AUTO 00000KT 10SM CLR 04/00 A3027 RMK AO2
KHOE 192335Z AUTO 00000KT 10SM CLR 06/00 A3026 RMK AO2
KHOE 192315Z AUTO 00000KT 10SM CLR 08/M01 A3026 RMK AO2
KHOE 192255Z AUTO 00000KT 10SM CLR 10/M02 A3025 RMK AO2
KHOE 192235Z AUTO 00000KT 10SM CLR 12/M06 A3026 RMK AO2
KHOE 192215Z AUTO 00000KT 10SM CLR 13/M07 A3026 RMK AO2
KHOE 192155Z AUTO 32004KT 10SM CLR 14/M07 A3026 RMK AO2
KHOE 192135Z AUTO 00000KT 10SM CLR 14/M07 A3026 RMK AO2
KHOE 192115Z AUTO 00000KT 10SM CLR 14/M07 A3026 RMK AO2
KHOE 192055Z AUTO 29003KT 10SM CLR 15/M07 A3026 RMK AO2
KHOE 192035Z AUTO 00000KT 10SM CLR 14/M07 A3026 RMK AO2
KHOE 192015Z AUTO 30004KT 10SM CLR 14/M08 A3027 RMK AO2
KHOE 191955Z AUTO 33004KT 10SM CLR 14/M08 A3027 RMK AO2
KHOE 191935Z AUTO 32006KT 10SM CLR 14/M08 A3027 RMK AO2
KHOE 191915Z AUTO 00000KT 10SM CLR 13/M08 A3028 RMK AO2
KHOE 191855Z AUTO 26006KT 10SM CLR 13/M08 A3029 RMK AO2
KHOE 191835Z AUTO 35003KT 10SM CLR 13/M08 A3029 RMK AO2
KHOE 191815Z AUTO 30006KT 10SM CLR 12/M08 A3031 RMK AO2
KHOE 191755Z AUTO 29005KT 10SM CLR 12/M08 A3032 RMK AO2
KHOE 191735Z AUTO 33008KT 10SM CLR 11/M07 A3034 RMK AO2
KHOE 191715Z AUTO 30008KT 10SM CLR 11/M08 A3035 RMK AO2
KHOE 191655Z AUTO 32004KT 10SM CLR 10/M07 A3036 RMK AO2
KHOE 191635Z AUTO 28007KT 10SM CLR 10/M08 A3038 RMK AO2
KHOE 191615Z AUTO 32006KT 10SM CLR 10/M07 A3038 RMK AO2
KHOE 191555Z AUTO 27004KT 10SM CLR 08/M07 A3039 RMK AO2
KHOE 191535Z AUTO 27004KT 10SM CLR 07/M07 A3039 RMK AO2
KHOE 191515Z AUTO 00000KT 10SM CLR 06/M05 A3039 RMK AO2
KHOE 191455Z AUTO 00000KT 10SM CLR 05/M03 A3039 RMK AO2